Time,TemperatureF,DewpointF,PressureIn,WindDirection,WindDirectionDegrees,WindSpeedMPH,WindSpeedGustMPH,Humidity,HourlyPrecipIn,Conditions,Clouds,dailyrainin,SoftwareType,DateUTC
2013-04-08 00:00:00,34.3,27.5,29.80,SE,144,5.0,7.0,76,0.00,,---,0.11,VWS V14.01,2013-04-08 06:00:00,
2013-04-08 00:05:00,34.0,28.2,29.80,SE,124,4.0,5.0,79,0.00,,---,0.00,VWS V14.01,2013-04-08 06:05:00,
2013-04-08 00:10:00,33.7,28.2,29.80,South,176,9.0,9.0,80,0.00,,---,0.00,VWS V14.01,2013-04-08 06:10:00,
2013-04-08 00:15:00,33.2,28.3,29.80,SSE,163,10.0,12.0,82,0.00,,---,0.00,VWS V14.01,2013-04-08 06:15:00,
2013-04-08 00:20:00,32.8,28.5,29.80,ESE,108,2.0,4.0,84,0.00,,---,0.00,VWS V14.01,2013-04-08 06:20:00,
2013-04-08 00:25:00,32.3,28.3,29.80,ENE,76,4.0,5.0,85,0.00,,---,0.00,VWS V14.01,2013-04-08 06:25:00,
2013-04-08 00:30:00,32.1,28.4,29.79,ENE,76,3.0,3.0,86,0.00,,---,0.00,VWS V14.01,2013-04-08 06:30:00,
2013-04-08 00:35:00,32.0,28.3,29.79,SE,141,2.0,3.0,86,0.00,,---,0.00,VWS V14.01,2013-04-08 06:35:00,
2013-04-08 00:40:00,31.6,27.9,29.79,NE,49,6.0,8.0,86,0.00,,---,0.00,VWS V14.01,2013-04-08 06:40:00,
2013-04-08 00:45:00,31.4,28.0,29.79,NE,46,5.0,6.0,87,0.00,,---,0.00,VWS V14.01,2013-04-08 06:45:00,
2013-04-08 00:50:00,31.4,28.3,29.79,NE,47,3.0,5.0,88,0.00,,---,0.00,VWS V14.01,2013-04-08 06:50:00,
2013-04-08 00:55:00,31.5,28.4,29.79,ESE,115,2.0,3.0,88,0.00,,---,0.00,VWS V14.01,2013-04-08 06:55:00,
2013-04-08 01:01:00,31.6,28.5,29.80,ESE,115,3.0,3.0,88,0.00,,---,0.00,VWS V14.01,2013-04-08 07:01:00,
2013-04-08 01:06:00,31.6,28.5,29.80,ESE,115,2.0,3.0,88,0.00,,---,0.00,VWS V14.01,2013-04-08 07:06:00,
2013-04-08 01:11:00,31.6,28.5,29.80,ESE,112,7.0,7.0,88,0.00,,---,0.00,VWS V14.01,2013-04-08 07:11:00,
2013-04-08 01:16:00,31.5,28.4,29.78,ESE,107,3.0,4.0,88,0.00,,---,0.00,VWS V14.01,2013-04-08 07:16:00,
2013-04-08 01:21:00,31.5,28.4,29.78,ESE,107,2.0,3.0,88,0.00,,---,0.00,VWS V14.01,2013-04-08 07:21:00,
2013-04-08 01:26:00,31.5,28.6,29.78,ESE,107,2.0,2.0,89,0.00,,---,0.00,VWS V14.01,2013-04-08 07:26:00,
2013-04-08 01:31:00,31.4,28.5,29.77,ESE,107,2.0,3.0,89,0.00,,---,0.00,VWS V14.01,2013-04-08 07:31:00,
2013-04-08 01:36:00,31.3,28.4,29.77,ESE,107,5.0,5.0,89,0.00,,---,0.00,VWS V14.01,2013-04-08 07:36:00,
2013-04-08 01:42:00,31.2,28.3,29.76,ESE,109,2.0,3.0,89,0.00,,---,0.00,VWS V14.01,2013-04-08 07:42:00,
2013-04-08 01:47:00,31.0,28.1,29.76,SSW,205,4.0,5.0,89,0.00,,---,0.00,VWS V14.01,2013-04-08 07:47:00,
2013-04-08 01:52:00,30.8,28.0,29.76,SSW,205,3.0,4.0,89,0.00,,---,0.00,VWS V14.01,2013-04-08 07:52:00,
2013-04-08 01:57:00,30.6,28.0,29.76,SSW,205,3.0,4.0,90,0.00,,---,0.00,VWS V14.01,2013-04-08 07:57:00,
2013-04-08 02:02:00,30.5,28.2,29.75,SSW,205,3.0,4.0,91,0.00,,---,0.00,VWS V14.01,2013-04-08 08:02:00,
2013-04-08 02:07:00,30.4,28.1,29.75,SSW,205,0.0,2.0,91,0.00,,---,0.00,VWS V14.01,2013-04-08 08:07:00,
2013-04-08 02:12:00,30.3,28.0,29.75,SSW,205,0.0,0.0,91,0.00,,---,0.00,VWS V14.01,2013-04-08 08:12:00,
2013-04-08 02:17:00,30.2,27.9,29.74,SSW,205,0.0,0.0,91,0.00,,---,0.00,VWS V14.01,2013-04-08 08:17:00,
2013-04-08 02:22:00,30.2,27.9,29.74,SSW,205,0.0,0.0,91,0.00,,---,0.00,VWS V14.01,2013-04-08 08:22:00,
2013-04-08 02:27:00,30.0,27.7,29.74,SSW,205,0.0,0.0,91,0.00,,---,0.00,VWS V14.01,2013-04-08 08:27:00,
2013-04-08 02:32:00,29.9,27.6,29.74,SSW,205,3.0,3.0,91,0.00,,---,0.00,VWS V14.01,2013-04-08 08:32:00,
2013-04-08 02:37:00,30.1,27.8,29.74,SSW,205,2.0,4.0,91,0.00,,---,0.00,VWS V14.01,2013-04-08 08:37:00,
2013-04-08 02:42:00,30.2,27.9,29.74,SSW,205,3.0,3.0,91,0.00,,---,0.00,VWS V14.01,2013-04-08 08:42:00,
2013-04-08 02:47:00,30.3,28.0,29.73,SSW,205,3.0,3.0,91,0.00,,---,0.00,VWS V14.01,2013-04-08 08:47:00,
2013-04-08 02:52:00,30.4,27.8,29.73,SSW,205,0.0,0.0,90,0.00,,---,0.00,VWS V14.01,2013-04-08 08:52:00,
2013-04-08 02:57:00,30.4,27.8,29.72,SSW,205,0.0,0.0,90,0.00,,---,0.00,VWS V14.01,2013-04-08 08:57:00,
2013-04-08 03:02:00,30.4,27.8,29.72,SSW,205,0.0,0.0,90,0.00,,---,0.00,VWS V14.01,2013-04-08 09:02:00,
2013-04-08 03:07:00,30.3,27.7,29.71,SSW,205,0.0,0.0,90,0.00,,---,0.00,VWS V14.01,2013-04-08 09:07:00,
2013-04-08 03:12:00,30.2,27.6,29.72,SSW,205,0.0,0.0,90,0.00,,---,0.00,VWS V14.01,2013-04-08 09:12:00,
2013-04-08 03:17:00,30.0,27.4,29.71,SSW,205,2.0,2.0,90,0.00,,---,0.00,VWS V14.01,2013-04-08 09:17:00,
2013-04-08 03:22:00,29.7,27.1,29.71,SSW,205,3.0,3.0,90,0.00,,---,0.00,VWS V14.01,2013-04-08 09:22:00,
2013-04-08 03:27:00,29.5,27.2,29.71,SSW,205,2.0,2.0,91,0.00,,---,0.00,VWS V14.01,2013-04-08 09:27:00,
2013-04-08 03:32:00,29.4,27.1,29.70,SSW,205,4.0,4.0,91,0.00,,---,0.00,VWS V14.01,2013-04-08 09:32:00,
2013-04-08 03:37:00,29.4,27.1,29.70,SSW,205,5.0,5.0,91,0.00,,---,0.00,VWS V14.01,2013-04-08 09:37:00,
2013-04-08 03:42:00,29.4,27.1,29.70,WSW,242,2.0,4.0,91,0.00,,---,0.00,VWS V14.01,2013-04-08 09:42:00,
2013-04-08 03:47:00,29.5,27.5,29.69,WSW,242,0.0,0.0,92,0.00,,---,0.00,VWS V14.01,2013-04-08 09:47:00,
2013-04-08 03:52:00,29.5,27.2,29.69,WSW,242,3.0,3.0,91,0.00,,---,0.00,VWS V14.01,2013-04-08 09:52:00,
2013-04-08 03:57:00,29.5,27.2,29.69,WSW,242,2.0,2.0,91,0.00,,---,0.00,VWS V14.01,2013-04-08 09:57:00,
2013-04-08 04:03:00,29.6,27.3,29.69,WSW,242,0.0,2.0,91,0.00,,---,0.00,VWS V14.01,2013-04-08 10:03:00,
2013-04-08 04:08:00,29.4,26.8,29.69,WSW,242,0.0,0.0,90,0.00,,---,0.00,VWS V14.01,2013-04-08 10:08:00,
2013-04-08 04:13:00,29.3,26.5,29.69,WSW,242,0.0,0.0,89,0.00,,---,0.00,VWS V14.01,2013-04-08 10:13:00,
2013-04-08 04:18:00,29.3,26.7,29.69,WSW,242,3.0,3.0,90,0.00,,---,0.00,VWS V14.01,2013-04-08 10:18:00,
2013-04-08 04:23:00,29.1,26.5,29.69,WSW,242,2.0,3.0,90,0.00,,---,0.00,VWS V14.01,2013-04-08 10:23:00,
2013-04-08 04:28:00,29.1,26.8,29.68,WSW,254,6.0,6.0,91,0.00,,---,0.00,VWS V14.01,2013-04-08 10:28:00,
2013-04-08 04:33:00,29.1,26.5,29.67,WSW,256,1.0,2.0,90,0.00,,---,0.00,VWS V14.01,2013-04-08 10:33:00,
2013-04-08 04:38:00,29.2,26.6,29.67,WSW,256,6.0,6.0,90,0.00,,---,0.00,VWS V14.01,2013-04-08 10:38:00,
2013-04-08 04:43:00,29.1,26.5,29.67,WSW,256,2.0,3.0,90,0.00,,---,0.00,VWS V14.01,2013-04-08 10:43:00,
2013-04-08 04:48:00,29.2,26.6,29.67,WSW,256,0.0,0.0,90,0.00,,---,0.00,VWS V14.01,2013-04-08 10:48:00,
2013-04-08 04:53:00,29.1,26.5,29.67,WSW,256,0.0,0.0,90,0.00,,---,0.00,VWS V14.01,2013-04-08 10:53:00,
2013-04-08 04:58:00,28.9,26.3,29.67,WSW,256,0.0,0.0,90,0.00,,---,0.00,VWS V14.01,2013-04-08 10:58:00,
2013-04-08 05:03:00,28.7,26.1,29.67,WSW,256,0.0,0.0,90,0.00,,---,0.00,VWS V14.01,2013-04-08 11:03:00,
2013-04-08 05:08:00,28.6,26.0,29.66,WSW,256,3.0,4.0,90,0.00,,---,0.00,VWS V14.01,2013-04-08 11:08:00,
2013-04-08 05:13:00,28.4,26.1,29.67,WSW,256,2.0,2.0,91,0.00,,---,0.00,VWS V14.01,2013-04-08 11:13:00,
2013-04-08 05:18:00,28.3,26.0,29.66,WSW,256,0.0,0.0,91,0.00,,---,0.00,VWS V14.01,2013-04-08 11:18:00,
2013-04-08 05:23:00,28.4,26.1,29.66,WSW,256,0.0,0.0,91,0.00,,---,0.00,VWS V14.01,2013-04-08 11:23:00,
2013-04-08 05:28:00,28.4,26.4,29.66,WSW,256,1.0,2.0,92,0.00,,---,0.00,VWS V14.01,2013-04-08 11:28:00,
2013-04-08 05:33:00,28.4,26.4,29.66,WSW,256,0.0,0.0,92,0.00,,---,0.00,VWS V14.01,2013-04-08 11:33:00,
2013-04-08 05:38:00,28.4,26.1,29.66,WSW,256,0.0,0.0,91,0.00,,---,0.00,VWS V14.01,2013-04-08 11:38:00,
2013-04-08 05:43:00,28.4,26.4,29.66,WSW,256,1.0,3.0,92,0.00,,---,0.00,VWS V14.01,2013-04-08 11:43:00,
2013-04-08 05:48:00,28.4,26.4,29.66,WSW,256,1.0,2.0,92,0.00,,---,0.00,VWS V14.01,2013-04-08 11:48:00,
2013-04-08 05:53:00,28.2,25.9,29.66,WSW,256,0.0,0.0,91,0.00,,---,0.00,VWS V14.01,2013-04-08 11:53:00,
2013-04-08 05:58:00,28.2,26.2,29.65,WSW,256,0.0,0.0,92,0.00,,---,0.00,VWS V14.01,2013-04-08 11:58:00,
2013-04-08 06:03:00,28.2,26.2,29.65,WSW,256,0.0,0.0,92,0.00,,---,0.00,VWS V14.01,2013-04-08 12:03:00,
2013-04-08 06:08:00,28.2,26.2,29.65,WSW,256,0.0,0.0,92,0.00,,---,0.00,VWS V14.01,2013-04-08 12:08:00,
2013-04-08 06:13:00,28.1,26.1,29.65,WSW,256,0.0,0.0,92,0.00,,---,0.00,VWS V14.01,2013-04-08 12:13:00,
2013-04-08 06:18:00,28.1,26.1,29.65,WSW,256,0.0,0.0,92,0.00,,---,0.00,VWS V14.01,2013-04-08 12:18:00,
2013-04-08 06:23:00,28.1,26.1,29.65,WSW,256,0.0,0.0,92,0.00,,---,0.00,VWS V14.01,2013-04-08 12:23:00,
2013-04-08 06:29:00,28.0,26.0,29.65,WSW,256,0.0,0.0,92,0.00,,---,0.00,VWS V14.01,2013-04-08 12:29:00,
2013-04-08 06:34:00,27.9,25.9,29.65,WSW,256,1.0,2.0,92,0.00,,---,0.00,VWS V14.01,2013-04-08 12:34:00,
2013-04-08 06:39:00,27.9,25.9,29.64,WSW,256,0.0,0.0,92,0.00,,---,0.00,VWS V14.01,2013-04-08 12:39:00,
2013-04-08 06:44:00,27.9,25.9,29.64,WSW,256,0.0,0.0,92,0.00,,---,0.00,VWS V14.01,2013-04-08 12:44:00,
2013-04-08 06:49:00,28.0,26.0,29.64,WSW,256,0.0,0.0,92,0.00,,---,0.00,VWS V14.01,2013-04-08 12:49:00,
2013-04-08 06:54:00,28.0,26.0,29.64,WSW,256,2.0,2.0,92,0.00,,---,0.00,VWS V14.01,2013-04-08 12:54:00,
2013-04-08 06:59:00,27.7,25.7,29.64,WSW,256,0.0,0.0,92,0.00,,---,0.00,VWS V14.01,2013-04-08 12:59:00,
2013-04-08 07:04:00,27.5,25.5,29.64,WSW,256,0.0,0.0,92,0.00,,---,0.00,VWS V14.01,2013-04-08 13:04:00,
2013-04-08 07:09:00,27.6,25.6,29.64,WSW,256,0.0,1.0,92,0.00,,---,0.00,VWS V14.01,2013-04-08 13:09:00,
2013-04-08 07:14:00,27.8,26.0,29.64,WSW,256,2.0,2.0,93,0.00,,---,0.00,VWS V14.01,2013-04-08 13:14:00,
2013-04-08 07:19:00,28.0,26.2,29.64,WSW,256,2.0,3.0,93,0.00,,---,0.00,VWS V14.01,2013-04-08 13:19:00,
2013-04-08 07:24:00,28.2,26.4,29.64,WSW,256,0.0,0.0,93,0.00,,---,0.00,VWS V14.01,2013-04-08 13:24:00,
2013-04-08 07:29:00,28.3,26.5,29.64,WSW,256,0.0,0.0,93,0.00,,---,0.00,VWS V14.01,2013-04-08 13:29:00,
2013-04-08 07:34:00,28.3,26.3,29.63,WSW,256,0.0,0.0,92,0.00,,---,0.00,VWS V14.01,2013-04-08 13:34:00,
2013-04-08 07:39:00,28.3,26.3,29.63,WSW,256,1.0,2.0,92,0.00,,---,0.00,VWS V14.01,2013-04-08 13:39:00,
2013-04-08 07:45:00,28.3,26.3,29.63,WSW,256,0.0,0.0,92,0.00,,---,0.00,VWS V14.01,2013-04-08 13:45:00,
2013-04-08 07:50:00,28.3,26.3,29.63,WSW,256,0.0,0.0,92,0.00,,---,0.00,VWS V14.01,2013-04-08 13:50:00,
2013-04-08 07:55:00,28.3,26.3,29.63,WSW,256,0.0,0.0,92,0.00,,---,0.00,VWS V14.01,2013-04-08 13:55:00,
2013-04-08 08:00:00,28.3,26.3,29.63,WSW,256,0.0,0.0,92,0.00,,---,0.00,VWS V14.01,2013-04-08 14:00:00,
2013-04-08 08:05:00,28.4,26.4,29.63,WSW,256,2.0,2.0,92,0.00,,---,0.00,VWS V14.01,2013-04-08 14:05:00,
2013-04-08 08:10:00,28.5,26.5,29.63,WSW,256,0.0,0.0,92,0.00,,---,0.00,VWS V14.01,2013-04-08 14:10:00,
2013-04-08 08:15:00,28.6,26.6,29.62,WSW,256,0.0,0.0,92,0.00,,---,0.00,VWS V14.01,2013-04-08 14:15:00,
2013-04-08 08:20:00,28.7,26.7,29.63,WSW,256,2.0,2.0,92,0.00,,---,0.00,VWS V14.01,2013-04-08 14:20:00,
2013-04-08 08:25:00,29.0,27.0,29.62,WSW,256,0.0,0.0,92,0.00,,---,0.00,VWS V14.01,2013-04-08 14:25:00,
2013-04-08 08:30:00,29.3,27.3,29.62,WSW,256,0.0,0.0,92,0.00,,---,0.00,VWS V14.01,2013-04-08 14:30:00,
2013-04-08 08:35:00,29.6,27.6,29.62,WSW,256,0.0,0.0,92,0.00,,---,0.00,VWS V14.01,2013-04-08 14:35:00,
2013-04-08 08:40:00,29.9,27.9,29.61,WSW,256,0.0,0.0,92,0.00,,---,0.00,VWS V14.01,2013-04-08 14:40:00,
2013-04-08 08:45:00,30.1,27.8,29.61,WSW,256,0.0,0.0,91,0.00,,---,0.00,VWS V14.01,2013-04-08 14:45:00,
2013-04-08 08:50:00,30.3,28.0,29.61,WSW,256,2.0,2.0,91,0.00,,---,0.00,VWS V14.01,2013-04-08 14:50:00,
2013-04-08 08:55:00,30.4,27.8,29.61,WSW,256,2.0,2.0,90,0.00,,---,0.00,VWS V14.01,2013-04-08 14:55:00,
2013-04-08 09:00:00,30.6,27.8,29.61,WSW,256,0.0,0.0,89,0.00,,---,0.00,VWS V14.01,2013-04-08 15:00:00,
2013-04-08 09:05:00,30.7,27.9,29.60,WSW,256,0.0,0.0,89,0.00,,---,0.00,VWS V14.01,2013-04-08 15:05:00,
2013-04-08 09:10:00,30.8,28.0,29.61,WSW,256,0.0,0.0,89,0.00,,---,0.00,VWS V14.01,2013-04-08 15:10:00,
2013-04-08 09:15:00,30.8,28.0,29.60,WSW,256,0.0,0.0,89,0.00,,---,0.00,VWS V14.01,2013-04-08 15:15:00,
2013-04-08 09:20:00,30.7,27.6,29.60,WSW,256,0.0,0.0,88,0.00,,---,0.00,VWS V14.01,2013-04-08 15:20:00,
2013-04-08 09:25:00,30.8,27.7,29.59,WSW,256,0.0,0.0,88,0.00,,---,0.00,VWS V14.01,2013-04-08 15:25:00,
2013-04-08 09:31:00,31.0,28.1,29.59,WSW,256,0.0,0.0,89,0.00,,---,0.00,VWS V14.01,2013-04-08 15:31:00,
2013-04-08 09:36:00,31.7,28.6,29.58,WSW,256,0.0,0.0,88,0.00,,---,0.00,VWS V14.01,2013-04-08 15:36:00,
2013-04-08 09:41:00,32.4,29.0,29.58,WSW,256,1.0,1.0,87,0.00,,---,0.00,VWS V14.01,2013-04-08 15:41:00,
2013-04-08 09:46:00,32.9,28.9,29.58,WSW,256,0.0,0.0,85,0.00,,---,0.00,VWS V14.01,2013-04-08 15:46:00,
2013-04-08 09:51:00,33.5,28.9,29.58,WSW,256,0.0,0.0,83,0.00,,---,0.00,VWS V14.01,2013-04-08 15:51:00,
2013-04-08 09:57:00,33.6,28.7,29.57,WSW,256,0.0,0.0,82,0.00,,---,0.00,VWS V14.01,2013-04-08 15:57:00,
2013-04-08 10:02:00,33.6,28.4,29.56,WSW,255,0.0,0.0,81,0.00,,---,0.00,VWS V14.01,2013-04-08 16:02:00,
2013-04-08 10:07:00,35.0,30.4,29.56,WSW,256,0.0,2.0,83,0.00,,---,0.00,VWS V14.01,2013-04-08 16:07:00,
2013-04-08 10:12:00,35.7,29.5,29.56,WSW,256,0.0,1.0,78,0.00,,---,0.00,VWS V14.01,2013-04-08 16:12:00,
2013-04-08 10:17:00,35.1,28.9,29.55,WSW,255,2.0,4.0,78,0.00,,---,0.00,VWS V14.01,2013-04-08 16:17:00,
2013-04-08 10:22:00,35.3,28.8,29.55,WSW,256,3.0,3.0,77,0.00,,---,0.00,VWS V14.01,2013-04-08 16:22:00,
2013-04-08 10:27:00,37.0,29.8,29.55,South,189,10.0,10.0,75,0.00,,---,0.00,VWS V14.01,2013-04-08 16:27:00,
2013-04-08 10:32:00,37.5,29.6,29.54,SSW,205,4.0,5.0,73,0.00,,---,0.00,VWS V14.01,2013-04-08 16:32:00,
2013-04-08 10:37:00,38.3,28.0,29.54,SE,144,11.0,12.0,66,0.00,,---,0.00,VWS V14.01,2013-04-08 16:37:00,
2013-04-08 10:42:00,40.5,26.0,29.53,East,88,9.0,10.0,56,0.00,,---,0.00,VWS V14.01,2013-04-08 16:42:00,
2013-04-08 10:47:00,42.2,23.4,29.53,ESE,114,15.0,31.0,47,0.00,,---,0.00,VWS V14.01,2013-04-08 16:47:00,
2013-04-08 10:52:00,42.7,22.9,29.53,ESE,108,9.0,14.0,45,0.00,,---,0.00,VWS V14.01,2013-04-08 16:52:00,
2013-04-08 10:57:00,43.2,23.3,29.52,East,100,8.0,13.0,45,0.00,,---,0.00,VWS V14.01,2013-04-08 16:57:00,
2013-04-08 11:02:00,43.4,22.4,29.52,East,98,14.0,14.0,43,0.00,,---,0.00,VWS V14.01,2013-04-08 17:02:00,
2013-04-08 11:07:00,43.4,21.9,29.52,East,92,13.0,13.0,42,0.00,,---,0.00,VWS V14.01,2013-04-08 17:07:00,
2013-04-08 11:12:00,43.3,22.9,29.51,ESE,123,14.0,15.0,44,0.00,,---,0.00,VWS V14.01,2013-04-08 17:12:00,
2013-04-08 11:17:00,43.1,23.2,29.50,ESE,111,11.0,14.0,45,0.00,,---,0.00,VWS V14.01,2013-04-08 17:17:00,
2013-04-08 11:22:00,43.2,23.3,29.50,SE,137,10.0,12.0,45,0.00,,---,0.00,VWS V14.01,2013-04-08 17:22:00,
2013-04-08 11:27:00,44.0,23.0,29.50,East,90,11.0,14.0,43,0.00,,---,0.00,VWS V14.01,2013-04-08 17:27:00,
2013-04-08 11:32:00,44.1,23.6,29.50,ENE,68,9.0,11.0,44,0.00,,---,0.00,VWS V14.01,2013-04-08 17:32:00,
2013-04-08 11:37:00,43.7,24.8,29.50,SE,138,11.0,13.0,47,0.00,,---,0.00,VWS V14.01,2013-04-08 17:37:00,
2013-04-08 11:43:00,43.5,24.6,29.50,SE,137,11.0,11.0,47,0.00,,---,0.00,VWS V14.01,2013-04-08 17:43:00,
2013-04-08 11:48:00,43.4,25.0,29.50,SE,126,6.0,11.0,48,0.00,,---,0.00,VWS V14.01,2013-04-08 17:48:00,
2013-04-08 11:53:00,43.7,25.8,29.49,SSE,148,12.0,12.0,49,0.00,,---,0.00,VWS V14.01,2013-04-08 17:53:00,
2013-04-08 11:58:00,44.3,22.7,29.49,SSE,160,9.0,12.0,42,0.00,,---,0.00,VWS V14.01,2013-04-08 17:58:00,
2013-04-08 12:03:00,44.5,22.9,29.48,SE,135,13.0,15.0,42,0.00,,---,0.00,VWS V14.01,2013-04-08 18:03:00,
2013-04-08 12:08:00,44.9,20.9,29.48,SE,146,12.0,16.0,38,0.00,,---,0.00,VWS V14.01,2013-04-08 18:08:00,
2013-04-08 12:13:00,45.2,21.7,29.47,ESE,116,22.0,22.0,39,0.00,,---,0.00,VWS V14.01,2013-04-08 18:13:00,
2013-04-08 12:18:00,45.1,21.0,29.47,SE,133,16.0,19.0,38,0.00,,---,0.00,VWS V14.01,2013-04-08 18:18:00,
2013-04-08 12:23:00,45.7,19.6,29.47,SE,144,12.0,22.0,35,0.00,,---,0.00,VWS V14.01,2013-04-08 18:23:00,
2013-04-08 12:28:00,45.9,19.1,29.46,SE,131,15.0,18.0,34,0.00,,---,0.00,VWS V14.01,2013-04-08 18:28:00,
2013-04-08 12:33:00,46.5,19.0,29.46,SE,144,12.0,14.0,33,0.00,,---,0.00,VWS V14.01,2013-04-08 18:33:00,
2013-04-08 12:38:00,46.6,21.1,29.45,ESE,122,16.0,16.0,36,0.00,,---,0.00,VWS V14.01,2013-04-08 18:38:00,
2013-04-08 12:43:00,46.3,18.8,29.44,SE,128,14.0,24.0,33,0.00,,---,0.00,VWS V14.01,2013-04-08 18:43:00,
2013-04-08 12:48:00,46.0,21.8,29.44,ESE,119,8.0,18.0,38,0.00,,---,0.00,VWS V14.01,2013-04-08 18:48:00,
2013-04-08 12:53:00,46.2,20.7,29.44,SE,143,20.0,27.0,36,0.00,,---,0.00,VWS V14.01,2013-04-08 18:53:00,
2013-04-08 12:58:00,47.6,21.3,29.43,SE,125,16.0,20.0,35,0.00,,---,0.00,VWS V14.01,2013-04-08 18:58:00,
2013-04-08 13:03:00,46.9,20.7,29.43,ESE,123,22.0,22.0,35,0.00,,---,0.00,VWS V14.01,2013-04-08 19:03:00,
2013-04-08 13:08:00,46.7,23.1,29.42,SE,134,27.0,27.0,39,0.00,,---,0.00,VWS V14.01,2013-04-08 19:08:00,
2013-04-08 13:13:00,46.6,22.4,29.42,ESE,123,24.0,24.0,38,0.00,,---,0.00,VWS V14.01,2013-04-08 19:13:00,
2013-04-08 13:18:00,46.6,21.7,29.42,SE,142,12.0,14.0,37,0.00,,---,0.00,VWS V14.01,2013-04-08 19:18:00,
2013-04-08 13:23:00,45.8,21.0,29.42,SE,144,13.0,15.0,37,0.00,,---,0.00,VWS V14.01,2013-04-08 19:23:00,
2013-04-08 13:28:00,45.8,21.6,29.41,East,94,14.0,14.0,38,0.00,,---,0.00,VWS V14.01,2013-04-08 19:28:00,
2013-04-08 13:33:00,45.7,20.9,29.40,ESE,115,15.0,20.0,37,0.00,,---,0.00,VWS V14.01,2013-04-08 19:33:00,
2013-04-08 13:38:00,45.1,22.2,29.40,SE,131,15.0,18.0,40,0.00,,---,0.00,VWS V14.01,2013-04-08 19:38:00,
2013-04-08 13:43:00,45.1,21.6,29.40,East,92,16.0,21.0,39,0.00,,---,0.00,VWS V14.01,2013-04-08 19:43:00,
2013-04-08 13:48:00,45.4,22.5,29.40,ESE,112,11.0,16.0,40,0.00,,---,0.00,VWS V14.01,2013-04-08 19:48:00,
2013-04-08 13:53:00,45.8,18.4,29.40,SSE,150,10.0,10.0,33,0.00,,---,0.00,VWS V14.01,2013-04-08 19:53:00,
2013-04-08 13:58:00,46.3,19.5,29.40,SE,138,19.0,21.0,34,0.00,,---,0.00,VWS V14.01,2013-04-08 19:58:00,
2013-04-08 14:03:00,45.9,21.1,29.39,SE,140,19.0,22.0,37,0.00,,---,0.00,VWS V14.01,2013-04-08 20:03:00,
2013-04-08 14:08:00,45.6,21.5,29.38,East,95,16.0,20.0,38,0.00,,---,0.00,VWS V14.01,2013-04-08 20:08:00,
2013-04-08 14:13:00,45.7,20.3,29.37,East,96,17.0,18.0,36,0.00,,---,0.00,VWS V14.01,2013-04-08 20:13:00,
2013-04-08 14:18:00,45.7,20.3,29.37,SE,134,19.0,20.0,36,0.00,,---,0.00,VWS V14.01,2013-04-08 20:18:00,
2013-04-08 14:23:00,45.8,21.0,29.37,ESE,123,12.0,21.0,37,0.00,,---,0.00,VWS V14.01,2013-04-08 20:23:00,
2013-04-08 14:28:00,45.7,20.3,29.37,ESE,118,17.0,18.0,36,0.00,,---,0.00,VWS V14.01,2013-04-08 20:28:00,
2013-04-08 14:33:00,45.9,19.1,29.37,SE,144,25.0,25.0,34,0.00,,---,0.00,VWS V14.01,2013-04-08 20:33:00,
2013-04-08 14:39:00,45.4,19.4,29.38,SE,135,17.0,29.0,35,0.00,,---,0.00,VWS V14.01,2013-04-08 20:39:00,
2013-04-08 14:44:00,45.0,20.9,29.38,ESE,118,25.0,25.0,38,0.00,,---,0.00,VWS V14.01,2013-04-08 20:44:00,
2013-04-08 14:49:00,44.6,21.2,29.38,SE,138,17.0,22.0,39,0.00,,---,0.00,VWS V14.01,2013-04-08 20:49:00,
2013-04-08 14:54:00,44.6,16.6,29.38,East,90,24.0,24.0,32,0.00,,---,0.00,VWS V14.01,2013-04-08 20:54:00,
2013-04-08 14:59:00,44.8,20.8,29.38,SE,142,15.0,20.0,38,0.00,,---,0.00,VWS V14.01,2013-04-08 20:59:00,
2013-04-08 15:04:00,44.2,20.2,29.39,SE,140,17.0,25.0,38,0.00,,---,0.00,VWS V14.01,2013-04-08 21:04:00,
2013-04-08 15:09:00,43.8,20.5,29.39,SSE,153,29.0,31.0,39,0.00,,---,0.00,VWS V14.01,2013-04-08 21:09:00,
2013-04-08 15:15:00,43.5,19.0,29.41,SSE,153,9.0,18.0,37,0.00,,---,0.00,VWS V14.01,2013-04-08 21:15:00,
2013-04-08 15:20:00,42.4,24.1,29.41,SE,136,12.0,18.0,48,0.00,,---,0.00,VWS V14.01,2013-04-08 21:20:00,
2013-04-08 15:25:00,41.3,23.6,29.41,SSE,159,15.0,23.0,49,0.00,,---,0.00,VWS V14.01,2013-04-08 21:25:00,
2013-04-08 15:30:00,41.0,24.3,29.41,ESE,113,14.0,26.0,51,0.00,,---,0.00,VWS V14.01,2013-04-08 21:30:00,
2013-04-08 15:35:00,40.7,24.5,29.40,East,93,21.0,25.0,52,0.00,,---,0.00,VWS V14.01,2013-04-08 21:35:00,
2013-04-08 15:40:00,40.5,24.3,29.41,SE,128,10.0,10.0,52,0.00,,---,0.00,VWS V14.01,2013-04-08 21:40:00,
2013-04-08 15:45:00,40.3,25.0,29.40,SE,130,15.0,15.0,54,0.00,,---,0.00,VWS V14.01,2013-04-08 21:45:00,
2013-04-08 15:50:00,40.4,24.6,29.39,ESE,116,11.0,14.0,53,0.00,,---,0.00,VWS V14.01,2013-04-08 21:50:00,
2013-04-08 15:55:00,40.6,25.3,29.39,SE,145,8.0,10.0,54,0.00,,---,0.00,VWS V14.01,2013-04-08 21:55:00,
2013-04-08 16:00:00,40.8,24.5,29.39,SE,144,8.0,9.0,52,0.00,,---,0.00,VWS V14.01,2013-04-08 22:00:00,
2013-04-08 16:05:00,40.9,24.2,29.38,ENE,64,3.0,3.0,51,0.00,,---,0.00,VWS V14.01,2013-04-08 22:05:00,
2013-04-08 16:10:00,41.1,24.8,29.38,ESE,111,12.0,16.0,52,0.00,,---,0.00,VWS V14.01,2013-04-08 22:10:00,
2013-04-08 16:15:00,41.3,23.6,29.37,SSE,167,12.0,14.0,49,0.00,,---,0.00,VWS V14.01,2013-04-08 22:15:00,
2013-04-08 16:20:00,41.5,24.7,29.38,SE,124,10.0,10.0,51,0.00,,---,0.00,VWS V14.01,2013-04-08 22:20:00,
2013-04-08 16:25:00,41.3,25.9,29.37,SE,141,14.0,14.0,54,0.00,,---,0.00,VWS V14.01,2013-04-08 22:25:00,
2013-04-08 16:30:00,41.0,25.6,29.36,SSE,154,10.0,16.0,54,0.00,,---,0.00,VWS V14.01,2013-04-08 22:30:00,
2013-04-08 16:35:00,41.1,25.3,29.35,SSE,152,12.0,12.0,53,0.00,,---,0.00,VWS V14.01,2013-04-08 22:35:00,
2013-04-08 16:40:00,41.3,25.9,29.35,SE,146,14.0,14.0,54,0.00,,---,0.00,VWS V14.01,2013-04-08 22:40:00,
2013-04-08 16:45:00,41.3,25.5,29.35,SSE,148,13.0,16.0,53,0.00,,---,0.00,VWS V14.01,2013-04-08 22:45:00,
2013-04-08 16:50:00,41.1,25.7,29.35,South,177,22.0,24.0,54,0.00,,---,0.00,VWS V14.01,2013-04-08 22:50:00,
2013-04-08 16:56:00,41.1,25.7,29.35,SSE,148,11.0,13.0,54,0.00,,---,0.00,VWS V14.01,2013-04-08 22:56:00,
2013-04-08 17:01:00,41.0,25.6,29.35,SSE,159,12.0,16.0,54,0.00,,---,0.00,VWS V14.01,2013-04-08 23:01:00,
2013-04-08 17:06:00,40.9,26.9,29.36,SSE,152,13.0,15.0,57,0.00,,---,0.00,VWS V14.01,2013-04-08 23:06:00,
2013-04-08 17:11:00,40.5,28.1,29.37,SSE,151,13.0,19.0,61,0.00,,---,0.00,VWS V14.01,2013-04-08 23:11:00,
2013-04-08 17:16:00,39.1,29.5,29.37,SE,144,19.0,19.0,68,0.00,,---,0.00,VWS V14.01,2013-04-08 23:16:00,
2013-04-08 17:22:00,37.7,30.2,29.38,SSE,164,17.0,19.0,74,0.00,,---,0.00,VWS V14.01,2013-04-08 23:22:00,
2013-04-08 17:27:00,36.6,30.7,29.38,South,181,10.0,13.0,79,0.00,,---,0.00,VWS V14.01,2013-04-08 23:27:00,
2013-04-08 17:32:00,35.9,30.6,29.36,SSE,167,11.0,11.0,81,0.01,,---,0.01,VWS V14.01,2013-04-08 23:32:00,
2013-04-08 17:37:00,35.7,30.8,29.36,SE,132,15.0,15.0,82,0.01,,---,0.01,VWS V14.01,2013-04-08 23:37:00,
2013-04-08 17:42:00,35.6,31.0,29.37,SE,143,16.0,16.0,83,0.01,,---,0.01,VWS V14.01,2013-04-08 23:42:00,
2013-04-08 17:47:00,35.3,31.0,29.37,ESE,117,15.0,15.0,84,0.01,,---,0.01,VWS V14.01,2013-04-08 23:47:00,
2013-04-08 17:52:00,35.3,31.0,29.35,ESE,103,11.0,17.0,84,0.01,,---,0.01,VWS V14.01,2013-04-08 23:52:00,
2013-04-08 17:57:00,35.5,31.1,29.36,ESE,112,12.0,14.0,84,0.01,,---,0.01,VWS V14.01,2013-04-08 23:57:00,
2013-04-08 18:02:00,35.8,31.1,29.36,East,101,11.0,11.0,83,0.01,,---,0.01,VWS V14.01,2013-04-09 00:02:00,
2013-04-08 18:07:00,36.0,31.4,29.36,ESE,119,8.0,8.0,83,0.01,,---,0.01,VWS V14.01,2013-04-09 00:07:00,
2013-04-08 18:12:00,36.1,31.1,29.37,ESE,119,4.0,4.0,82,0.01,,---,0.01,VWS V14.01,2013-04-09 00:12:00,
2013-04-08 18:17:00,36.1,31.5,29.37,SE,138,6.0,7.0,83,0.01,,---,0.01,VWS V14.01,2013-04-09 00:17:00,
2013-04-08 18:22:00,36.0,31.0,29.37,East,93,8.0,8.0,82,0.01,,---,0.01,VWS V14.01,2013-04-09 00:22:00,
2013-04-08 18:27:00,35.9,31.0,29.38,ESE,103,9.0,9.0,82,0.01,,---,0.01,VWS V14.01,2013-04-09 00:27:00,
2013-04-08 18:32:00,35.7,31.0,29.38,ESE,119,8.0,8.0,83,0.01,,---,0.01,VWS V14.01,2013-04-09 00:32:00,
2013-04-08 18:37:00,35.3,31.2,29.38,ESE,111,3.0,5.0,85,0.00,,---,0.01,VWS V14.01,2013-04-09 00:37:00,
2013-04-08 18:42:00,35.1,31.3,29.38,ESE,110,15.0,17.0,86,0.01,,---,0.02,VWS V14.01,2013-04-09 00:42:00,
2013-04-08 18:47:00,34.6,31.1,29.38,SE,134,11.0,11.0,87,0.01,,---,0.02,VWS V14.01,2013-04-09 00:47:00,
2013-04-08 18:52:00,34.4,31.2,29.38,East,94,15.0,16.0,88,0.01,,---,0.02,VWS V14.01,2013-04-09 00:52:00,
2013-04-08 18:57:00,34.4,31.5,29.37,East,95,26.0,26.0,89,0.01,,---,0.02,VWS V14.01,2013-04-09 00:57:00,
2013-04-08 19:02:00,34.3,31.4,29.37,East,87,9.0,13.0,89,0.02,,---,0.03,VWS V14.01,2013-04-09 01:02:00,
2013-04-08 19:07:00,34.3,31.4,29.37,East,82,9.0,16.0,89,0.02,,---,0.03,VWS V14.01,2013-04-09 01:07:00,
2013-04-08 19:12:00,34.4,31.8,29.37,East,101,18.0,18.0,90,0.02,,---,0.03,VWS V14.01,2013-04-09 01:12:00,
2013-04-08 19:17:00,34.6,31.7,29.38,ESE,102,16.0,18.0,89,0.02,,---,0.03,VWS V14.01,2013-04-09 01:17:00,
2013-04-08 19:22:00,34.8,31.9,29.38,ESE,103,14.0,14.0,89,0.02,,---,0.03,VWS V14.01,2013-04-09 01:22:00,
2013-04-08 19:27:00,34.9,31.7,29.38,ESE,113,10.0,12.0,88,0.02,,---,0.03,VWS V14.01,2013-04-09 01:27:00,
2013-04-08 19:32:00,35.5,31.5,29.37,East,88,18.0,20.0,85,0.02,,---,0.03,VWS V14.01,2013-04-09 01:32:00,
2013-04-08 19:37:00,36.2,31.2,29.38,East,101,14.0,18.0,82,0.02,,---,0.03,VWS V14.01,2013-04-09 01:37:00,
2013-04-08 19:42:00,36.4,31.4,29.38,East,96,10.0,14.0,82,0.01,,---,0.03,VWS V14.01,2013-04-09 01:42:00,
2013-04-08 19:47:00,36.4,31.4,29.38,East,101,15.0,16.0,82,0.01,,---,0.03,VWS V14.01,2013-04-09 01:47:00,
2013-04-08 19:52:00,36.4,31.1,29.38,East,88,7.0,7.0,81,0.01,,---,0.03,VWS V14.01,2013-04-09 01:52:00,
2013-04-08 19:57:00,36.5,30.9,29.39,SE,136,7.0,11.0,80,0.01,,---,0.03,VWS V14.01,2013-04-09 01:57:00,
2013-04-08 20:02:00,36.6,31.0,29.39,SSE,150,10.0,10.0,80,0.00,,---,0.03,VWS V14.01,2013-04-09 02:02:00,
2013-04-08 20:07:00,36.5,31.2,29.39,SE,146,8.0,10.0,81,0.00,,---,0.03,VWS V14.01,2013-04-09 02:07:00,
2013-04-08 20:12:00,36.3,31.3,29.38,SSW,194,7.0,7.0,82,0.00,,---,0.03,VWS V14.01,2013-04-09 02:12:00,
2013-04-08 20:17:00,35.9,31.5,29.39,SSW,195,0.0,2.0,84,0.00,,---,0.03,VWS V14.01,2013-04-09 02:17:00,
2013-04-08 20:22:00,35.6,31.5,29.39,SSW,195,3.0,4.0,85,0.00,,---,0.03,VWS V14.01,2013-04-09 02:22:00,
2013-04-08 20:27:00,35.3,31.5,29.39,SSW,195,4.0,5.0,86,0.00,,---,0.03,VWS V14.01,2013-04-09 02:27:00,
2013-04-08 20:32:00,35.1,31.3,29.39,SSW,195,7.0,7.0,86,0.00,,---,0.03,VWS V14.01,2013-04-09 02:32:00,
2013-04-08 20:37:00,35.1,31.3,29.39,SSW,195,2.0,2.0,86,0.00,,---,0.03,VWS V14.01,2013-04-09 02:37:00,
2013-04-08 20:43:00,35.0,31.5,29.39,SSW,195,0.0,0.0,87,0.00,,---,0.03,VWS V14.01,2013-04-09 02:43:00,
2013-04-08 20:48:00,34.9,31.4,29.40,SSW,202,4.0,6.0,87,0.00,,---,0.03,VWS V14.01,2013-04-09 02:48:00,
2013-04-08 20:53:00,34.9,31.4,29.41,SSW,202,0.0,0.0,87,0.00,,---,0.03,VWS V14.01,2013-04-09 02:53:00,
2013-04-08 20:58:00,34.8,31.3,29.41,SSW,202,5.0,5.0,87,0.00,,---,0.03,VWS V14.01,2013-04-09 02:58:00,
2013-04-08 21:03:00,34.8,31.3,29.42,SSW,208,3.0,4.0,87,0.00,,---,0.03,VWS V14.01,2013-04-09 03:03:00,
2013-04-08 21:08:00,34.8,31.3,29.41,SSW,208,2.0,4.0,87,0.00,,---,0.03,VWS V14.01,2013-04-09 03:08:00,
2013-04-08 21:13:00,34.8,31.3,29.41,SSW,208,1.0,1.0,87,0.00,,---,0.03,VWS V14.01,2013-04-09 03:13:00,
2013-04-08 21:18:00,34.9,31.4,29.41,SSW,208,3.0,4.0,87,0.00,,---,0.03,VWS V14.01,2013-04-09 03:18:00,
2013-04-08 21:23:00,34.9,31.4,29.41,SSW,206,5.0,7.0,87,0.00,,---,0.03,VWS V14.01,2013-04-09 03:23:00,
2013-04-08 21:28:00,34.8,31.3,29.41,SSW,206,0.0,0.0,87,0.00,,---,0.03,VWS V14.01,2013-04-09 03:28:00,
2013-04-08 21:33:00,34.7,31.2,29.41,SSW,206,0.0,2.0,87,0.00,,---,0.03,VWS V14.01,2013-04-09 03:33:00,
2013-04-08 21:38:00,34.5,31.0,29.41,SSW,201,4.0,4.0,87,0.00,,---,0.03,VWS V14.01,2013-04-09 03:38:00,
2013-04-08 21:43:00,34.8,29.9,29.41,ESE,109,7.0,7.0,82,0.00,,---,0.03,VWS V14.01,2013-04-09 03:43:00,
2013-04-08 21:48:00,36.0,29.2,29.41,SE,128,2.0,9.0,76,0.00,,---,0.03,VWS V14.01,2013-04-09 03:48:00,
2013-04-08 21:53:00,36.4,31.1,29.41,SSW,206,2.0,6.0,81,0.00,,---,0.03,VWS V14.01,2013-04-09 03:53:00,
2013-04-08 21:58:00,36.1,31.1,29.41,SE,124,3.0,5.0,82,0.00,,---,0.03,VWS V14.01,2013-04-09 03:58:00,
2013-04-08 22:00:00,36.0,30.4,29.41,SSE,161,1.0,3.0,80,0.00,,---,0.03,VWS V14.01,2013-04-09 04:00:00,
2013-04-08 22:01:00,35.9,30.6,29.41,SSE,162,2.0,2.0,81,0.00,,---,0.03,VWS V14.01,2013-04-09 04:01:00,
2013-04-08 22:06:00,35.6,30.7,29.41,SSE,162,0.0,0.0,82,0.00,,---,0.03,VWS V14.01,2013-04-09 04:06:00,
2013-04-08 22:11:00,35.3,30.7,29.41,South,171,0.0,0.0,83,0.00,,---,0.03,VWS V14.01,2013-04-09 04:11:00,
2013-04-08 22:16:00,35.2,30.6,29.40,South,171,0.0,1.0,83,0.00,,---,0.03,VWS V14.01,2013-04-09 04:16:00,
2013-04-08 22:21:00,35.3,28.2,29.40,East,97,10.0,10.0,75,0.00,,---,0.03,VWS V14.01,2013-04-09 04:21:00,
2013-04-08 22:27:00,36.4,28.6,29.41,South,182,5.0,5.0,73,0.00,,---,0.03,VWS V14.01,2013-04-09 04:27:00,
2013-04-08 22:32:00,37.1,28.6,29.40,East,101,7.0,9.0,71,0.00,,---,0.03,VWS V14.01,2013-04-09 04:32:00,
2013-04-08 22:37:00,37.5,28.6,29.41,SSE,163,5.0,5.0,70,0.00,,---,0.03,VWS V14.01,2013-04-09 04:37:00,
2013-04-08 22:42:00,37.3,30.1,29.40,SSE,163,3.0,3.0,75,0.00,,---,0.03,VWS V14.01,2013-04-09 04:42:00,
2013-04-08 22:47:00,36.8,27.6,29.39,SE,144,7.0,11.0,69,0.00,,---,0.03,VWS V14.01,2013-04-09 04:47:00,
2013-04-08 22:52:00,36.6,29.8,29.37,SSW,213,4.0,4.0,76,0.00,,---,0.03,VWS V14.01,2013-04-09 04:52:00,
2013-04-08 22:57:00,36.2,29.7,29.37,SW,215,1.0,3.0,77,0.00,,---,0.03,VWS V14.01,2013-04-09 04:57:00,
2013-04-08 23:02:00,35.9,29.1,29.38,SW,215,1.0,2.0,76,0.00,,---,0.03,VWS V14.01,2013-04-09 05:02:00,
2013-04-08 23:07:00,35.7,29.5,29.38,SW,215,0.0,0.0,78,0.00,,---,0.03,VWS V14.01,2013-04-09 05:07:00,
2013-04-08 23:12:00,35.6,29.4,29.39,SW,215,0.0,0.0,78,0.00,,---,0.03,VWS V14.01,2013-04-09 05:12:00,
2013-04-08 23:17:00,35.3,29.5,29.38,SW,215,0.0,0.0,79,0.00,,---,0.03,VWS V14.01,2013-04-09 05:17:00,
2013-04-08 23:22:00,35.1,29.6,29.39,SW,215,0.0,0.0,80,0.00,,---,0.03,VWS V14.01,2013-04-09 05:22:00,
2013-04-08 23:27:00,35.0,29.8,29.39,SW,215,2.0,2.0,81,0.00,,---,0.03,VWS V14.01,2013-04-09 05:27:00,
2013-04-08 23:32:00,34.8,29.6,29.41,SW,215,1.0,1.0,81,0.00,,---,0.03,VWS V14.01,2013-04-09 05:32:00,
2013-04-08 23:37:00,34.6,30.0,29.41,SW,215,0.0,0.0,83,0.00,,---,0.03,VWS V14.01,2013-04-09 05:37:00,
2013-04-08 23:42:00,34.3,30.0,29.42,SW,215,0.0,0.0,84,0.00,,---,0.03,VWS V14.01,2013-04-09 05:42:00,
2013-04-08 23:47:00,34.1,29.8,29.42,SW,215,6.0,6.0,84,0.00,,---,0.03,VWS V14.01,2013-04-09 05:47:00,
2013-04-08 23:52:00,34.2,29.0,29.43,SE,131,5.0,10.0,81,0.00,,---,0.03,VWS V14.01,2013-04-09 05:52:00,
2013-04-08 23:57:00,34.9,28.4,29.43,SE,130,11.0,11.0,77,0.00,,---,0.03,VWS V14.01,2013-04-09 05:57:00,